createdAt,value
2023-04-20T00:01:33.159Z,10.74
2023-04-20T00:04:00.001Z,10.74
2023-04-20T00:06:29.028Z,10.73
2023-04-20T00:08:55.859Z,10.74
2023-04-20T00:11:22.423Z,10.73
2023-04-20T00:13:49.139Z,10.73
2023-04-20T00:16:16.026Z,10.72
2023-04-20T00:18:45.521Z,10.72
2023-04-20T00:21:12.833Z,10.73
2023-04-20T00:23:39.741Z,10.72
2023-04-20T00:26:06.936Z,10.72
2023-04-20T00:28:33.997Z,10.74
2023-04-20T00:31:00.752Z,10.75
2023-04-20T00:33:27.450Z,10.74
2023-04-20T00:35:55.837Z,10.72
2023-04-20T00:38:23.784Z,10.72
2023-04-20T00:40:53.490Z,10.69
2023-04-20T00:43:20.288Z,10.68
2023-04-20T00:45:47.153Z,10.69
2023-04-20T00:48:14.264Z,10.68
2023-04-20T00:50:43.456Z,10.68
2023-04-20T00:53:10.306Z,10.67
2023-04-20T00:55:37.346Z,10.66
2023-04-20T00:58:04.219Z,10.63
2023-04-20T01:00:33.427Z,10.61
2023-04-20T01:03:00.192Z,10.59
2023-04-20T01:05:27.205Z,10.58
2023-04-20T01:07:55.499Z,10.58
2023-04-20T01:10:22.418Z,10.57
2023-04-20T01:12:49.117Z,10.54
2023-04-20T01:15:16.078Z,10.52
2023-04-20T01:17:45.047Z,10.49
2023-04-20T01:20:12.017Z,10.47
2023-04-20T01:22:46.088Z,10.45
2023-04-20T01:25:14.336Z,10.43
2023-04-20T01:27:42.115Z,10.42
2023-04-20T01:30:09.160Z,10.41
2023-04-20T01:32:37.865Z,10.41
2023-04-20T01:35:05.383Z,10.41
2023-04-20T01:37:32.286Z,10.41
2023-04-20T01:40:03.530Z,10.41
2023-04-20T01:42:30.327Z,10.42
2023-04-20T01:44:57.992Z,10.42
2023-04-20T01:47:24.685Z,10.41
2023-04-20T01:49:51.431Z,10.42
2023-04-20T01:52:18.016Z,10.42
2023-04-20T01:54:44.773Z,10.41
2023-04-20T01:57:11.530Z,10.41
2023-04-20T01:59:39.037Z,10.41
2023-04-20T02:02:05.932Z,10.40
2023-04-20T02:04:34.334Z,10.39
2023-04-20T02:07:00.899Z,10.38
2023-04-20T02:09:27.575Z,10.37
2023-04-20T02:11:54.681Z,10.36
2023-04-20T02:14:21.426Z,10.35
2023-04-20T02:16:48.362Z,10.35
2023-04-20T02:19:15.273Z,10.36
2023-04-20T02:21:41.967Z,10.35
2023-04-20T02:24:08.702Z,10.33
2023-04-20T02:26:35.769Z,10.33
2023-04-20T02:29:02.297Z,10.31
2023-04-20T02:31:29.381Z,10.31
2023-04-20T02:33:55.998Z,10.30
2023-04-20T02:36:22.636Z,10.27
2023-04-20T02:38:49.225Z,10.26
2023-04-20T02:41:16.038Z,10.26
2023-04-20T02:43:43.317Z,10.25
2023-04-20T02:46:10.682Z,10.24
2023-04-20T02:48:37.614Z,10.23
2023-04-20T02:51:04.185Z,10.22
2023-04-20T02:53:40.384Z,10.23
2023-04-20T02:56:18.817Z,10.24
2023-04-20T02:58:51.551Z,10.24
2023-04-20T03:01:24.971Z,10.24
2023-04-20T03:03:58.655Z,10.23
2023-04-20T03:06:26.045Z,10.22
2023-04-20T03:08:55.795Z,10.23
2023-04-20T03:11:45.325Z,10.25
2023-04-20T03:14:14.752Z,10.25
2023-04-20T03:16:42.155Z,10.25
2023-04-20T03:19:09.839Z,10.25
2023-04-20T03:21:36.504Z,10.26
2023-04-20T03:24:03.771Z,10.26
2023-04-20T03:26:30.468Z,10.28
2023-04-20T03:29:10.965Z,10.29
2023-04-20T03:31:37.798Z,10.30
2023-04-20T03:34:04.985Z,10.31
2023-04-20T03:36:31.925Z,10.31
2023-04-20T03:38:59.092Z,10.31
2023-04-20T03:41:26.916Z,10.31
2023-04-20T03:43:55.434Z,10.33
2023-04-20T03:46:23.241Z,10.35
2023-04-20T03:48:50.468Z,10.32
2023-04-20T03:51:17.445Z,10.30
2023-04-20T03:53:44.374Z,10.31
2023-04-20T03:56:11.861Z,10.32
2023-04-20T03:58:38.601Z,10.33
2023-04-20T04:01:12.592Z,10.33
2023-04-20T04:03:42.299Z,10.33
2023-04-20T04:06:10.062Z,10.36
2023-04-20T04:08:36.767Z,10.36
2023-04-20T04:11:03.711Z,10.37
2023-04-20T04:13:33.782Z,10.38
2023-04-20T04:16:01.616Z,10.41
2023-04-20T04:18:31.833Z,10.44
2023-04-20T04:20:59.624Z,10.47
2023-04-20T04:23:29.455Z,10.49
2023-04-20T04:26:09.443Z,10.53
2023-04-20T04:28:36.959Z,10.54
2023-04-20T04:31:18.841Z,10.55
2023-04-20T04:33:45.829Z,10.57
2023-04-20T04:36:15.593Z,10.59
2023-04-20T04:38:44.024Z,10.59
2023-04-20T04:41:12.040Z,10.57
2023-04-20T04:43:40.344Z,10.53
2023-04-20T04:46:14.041Z,10.49
2023-04-20T04:48:41.680Z,10.44
2023-04-20T04:51:08.724Z,10.40
2023-04-20T04:53:35.480Z,10.37
2023-04-20T04:56:03.840Z,10.32
2023-04-20T04:58:30.754Z,10.28
2023-04-20T05:00:57.497Z,10.24
2023-04-20T05:03:24.579Z,10.17
2023-04-20T05:05:51.492Z,10.13
2023-04-20T05:08:18.400Z,10.13
2023-04-20T05:10:45.056Z,10.12
2023-04-20T05:13:11.655Z,10.13
2023-04-20T05:15:38.262Z,10.11
2023-04-20T05:18:06.950Z,10.07
2023-04-20T05:20:33.886Z,10.07
2023-04-20T05:23:00.428Z,10.07
2023-04-20T05:25:27.059Z,10.02
2023-04-20T05:27:53.674Z,9.99
2023-04-20T05:30:22.067Z,9.99
2023-04-20T05:32:52.017Z,9.95
2023-04-20T05:35:20.578Z,9.92
2023-04-20T05:37:47.255Z,9.88
2023-04-20T05:40:15.114Z,9.87
2023-04-20T05:42:42.368Z,9.86
2023-04-20T05:45:10.065Z,9.85
2023-04-20T05:47:36.849Z,9.80
2023-04-20T05:50:05.840Z,9.75
2023-04-20T05:52:32.843Z,9.71
2023-04-20T05:54:59.558Z,9.67
2023-04-20T05:57:26.495Z,9.66
2023-04-20T05:59:55.476Z,9.63
2023-04-20T06:02:22.641Z,9.62
2023-04-20T06:04:49.787Z,9.63
2023-04-20T06:07:17.165Z,9.62
2023-04-20T06:09:44.633Z,9.64
2023-04-20T06:12:11.918Z,9.61
2023-04-20T06:14:40.022Z,9.57
2023-04-20T06:17:08.246Z,9.57
2023-04-20T06:19:35.997Z,9.57
2023-04-20T06:22:12.865Z,9.57
2023-04-20T06:24:42.232Z,9.55
2023-04-20T06:27:09.332Z,9.54
2023-04-20T06:29:36.275Z,9.54
2023-04-20T06:32:03.975Z,9.56
2023-04-20T06:34:31.507Z,9.53
2023-04-20T06:37:01.129Z,9.51
2023-04-20T06:39:27.955Z,9.52
2023-04-20T06:41:54.691Z,9.55
2023-04-20T06:44:22.472Z,9.60
2023-04-20T06:46:50.154Z,9.67
2023-04-20T06:49:17.596Z,9.77
2023-04-20T06:51:48.763Z,9.87
2023-04-20T06:54:16.833Z,9.97
2023-04-20T06:56:46.189Z,10.04
2023-04-20T06:59:15.510Z,10.12
2023-04-20T07:01:43.520Z,10.21
2023-04-20T07:04:14.577Z,10.29
2023-04-20T07:06:56.862Z,10.37
2023-04-20T07:09:38.914Z,10.40
2023-04-20T07:12:06.176Z,10.41
2023-04-20T07:14:33.480Z,10.43
2023-04-20T07:17:00.432Z,10.44
2023-04-20T07:19:27.354Z,10.45
2023-04-20T07:21:55.096Z,10.45
2023-04-20T07:24:23.142Z,10.44
2023-04-20T07:26:50.805Z,10.45
2023-04-20T07:29:17.945Z,10.47
2023-04-20T07:31:45.206Z,10.52
2023-04-20T07:34:13.292Z,10.57
2023-04-20T07:36:41.879Z,10.59
2023-04-20T07:39:08.842Z,10.62
2023-04-20T07:41:50.060Z,10.66
2023-04-20T07:44:17.337Z,10.64
2023-04-20T07:46:45.096Z,10.62
2023-04-20T07:49:12.263Z,10.62
2023-04-20T07:51:42.438Z,10.60
2023-04-20T07:54:18.771Z,10.57
2023-04-20T07:56:48.626Z,10.52
2023-04-20T07:59:15.824Z,10.47
2023-04-20T08:01:46.017Z,10.44
2023-04-20T08:04:13.204Z,10.44
2023-04-20T08:06:43.379Z,10.46
2023-04-20T08:09:14.015Z,10.49
2023-04-20T08:11:41.015Z,10.52
2023-04-20T08:14:10.441Z,10.55
2023-04-20T08:16:40.076Z,10.55
2023-04-20T08:19:12.373Z,10.55
2023-04-20T08:21:43.022Z,10.54
2023-04-20T08:24:09.972Z,10.52
2023-04-20T08:26:36.801Z,10.49
2023-04-20T08:29:03.801Z,10.45
2023-04-20T08:31:32.369Z,10.42
2023-04-20T08:33:59.911Z,10.41
2023-04-20T08:36:27.728Z,10.38
2023-04-20T08:38:58.373Z,10.33
2023-04-20T08:41:25.678Z,10.26
2023-04-20T08:43:52.347Z,10.21
2023-04-20T08:46:22.368Z,10.17
2023-04-20T08:48:49.691Z,10.09
2023-04-20T08:51:17.568Z,10.00
2023-04-20T08:53:47.085Z,9.92
2023-04-20T08:56:16.672Z,9.86
2023-04-20T08:58:46.358Z,9.81
2023-04-20T09:01:34.344Z,9.72
2023-04-20T09:04:29.090Z,9.60
2023-04-20T09:06:58.285Z,9.54
2023-04-20T09:09:30.826Z,9.51
2023-04-20T09:12:05.047Z,9.45
2023-04-20T09:14:49.299Z,9.40
2023-04-20T09:17:47.846Z,9.36
2023-04-20T09:20:57.355Z,9.30
2023-04-20T09:23:25.868Z,9.26
2023-04-20T09:25:53.858Z,9.26
2023-04-20T09:28:21.528Z,9.27
2023-04-20T09:30:50.129Z,9.27
2023-04-20T09:33:21.055Z,9.27
2023-04-20T09:35:48.347Z,9.28
2023-04-20T09:38:15.815Z,9.27
2023-04-20T09:40:43.781Z,9.26
2023-04-20T09:43:17.851Z,9.27
2023-04-20T09:45:45.307Z,9.28
2023-04-20T09:48:18.251Z,9.31
2023-04-20T09:50:49.252Z,9.37
2023-04-20T09:53:19.954Z,9.42
2023-04-20T09:56:10.467Z,9.49
2023-04-20T09:58:43.927Z,9.58
2023-04-20T10:01:37.460Z,9.67
2023-04-20T10:04:09.293Z,9.76
2023-04-20T10:07:11.622Z,9.85
2023-04-20T10:09:38.708Z,9.93
2023-04-20T10:12:06.947Z,10.01
2023-04-20T10:14:36.449Z,10.11
2023-04-20T10:17:04.941Z,10.19
2023-04-20T10:19:58.713Z,10.24
2023-04-20T10:22:32.573Z,10.29
2023-04-20T10:25:00.711Z,10.34
2023-04-20T10:27:32.077Z,10.38
2023-04-20T10:30:09.742Z,10.41
2023-04-20T10:32:40.874Z,10.44
2023-04-20T10:35:21.216Z,10.47
2023-04-20T10:38:59.759Z,10.46
2023-04-20T10:42:17.450Z,10.47
2023-04-20T10:44:49.127Z,10.48
2023-04-20T10:47:17.433Z,10.48
2023-04-20T10:49:44.781Z,10.49
2023-04-20T10:52:13.820Z,10.51
2023-04-20T10:54:51.062Z,10.53
2023-04-20T10:57:20.090Z,10.56
2023-04-20T11:00:02.692Z,10.58
2023-04-20T11:02:45.131Z,10.60
2023-04-20T11:05:20.001Z,10.63
2023-04-20T11:08:00.667Z,10.65
2023-04-20T11:10:42.508Z,10.67
2023-04-20T11:13:24.770Z,10.67
2023-04-20T11:15:52.927Z,10.63
2023-04-20T11:18:43.532Z,10.58
2023-04-20T11:21:15.698Z,10.54
2023-04-20T11:23:46.722Z,10.54
2023-04-20T11:26:17.768Z,10.53
2023-04-20T11:28:55.594Z,10.54
2023-04-20T11:31:23.964Z,10.54
2023-04-20T11:33:55.592Z,10.53
2023-04-20T11:36:25.396Z,10.52
2023-04-20T11:38:55.420Z,10.53
2023-04-20T11:41:24.026Z,10.54
2023-04-20T11:43:50.793Z,10.55
2023-04-20T11:46:19.715Z,10.54
2023-04-20T11:49:14.437Z,10.55
2023-04-20T11:52:07.421Z,10.59
2023-04-20T11:58:03.803Z,10.67
2023-04-20T12:00:39.273Z,10.73
2023-04-20T12:03:07.491Z,10.77
2023-04-20T12:05:38.331Z,10.81
2023-04-20T12:08:21.166Z,10.85
2023-04-20T12:11:04.734Z,10.89
2023-04-20T12:13:41.511Z,10.90
2023-04-20T12:16:35.086Z,10.91
2023-04-20T12:19:03.199Z,10.92
2023-04-20T12:21:33.706Z,10.94
2023-04-20T12:24:07.392Z,10.96
2023-04-20T12:26:38.637Z,10.98
2023-04-20T12:29:07.421Z,11.02
2023-04-20T12:31:40.360Z,11.04
2023-04-20T12:34:07.443Z,11.05
2023-04-20T12:36:34.323Z,11.06
2023-04-20T12:39:03.029Z,11.09
2023-04-20T12:41:30.170Z,11.11
2023-04-20T12:43:58.484Z,11.09
2023-04-20T12:46:25.644Z,11.09
2023-04-20T12:48:53.202Z,11.08
2023-04-20T12:51:33.933Z,11.08
2023-04-20T12:54:28.191Z,11.09
2023-04-20T12:57:02.094Z,11.10
2023-04-20T12:59:29.631Z,11.13
2023-04-20T13:01:58.943Z,11.15
2023-04-20T13:04:28.990Z,11.17
2023-04-20T13:07:02.446Z,11.16
2023-04-20T13:09:29.968Z,11.13
2023-04-20T13:11:58.786Z,11.08
2023-04-20T13:14:29.069Z,11.08
2023-04-20T13:17:01.143Z,11.09
2023-04-20T13:19:30.419Z,11.10
2023-04-20T13:22:08.319Z,11.10
2023-04-20T13:24:35.427Z,11.12
2023-04-20T13:27:03.119Z,11.13
2023-04-20T13:29:32.822Z,11.14
2023-04-20T13:32:00.638Z,11.12
2023-04-20T13:37:33.935Z,10.94
2023-04-20T13:40:09.419Z,10.90
2023-04-20T13:42:36.686Z,10.88
2023-04-20T13:45:04.415Z,10.88
2023-04-20T13:47:31.402Z,10.90
2023-04-20T13:49:59.089Z,10.94
2023-04-20T13:52:26.113Z,10.97
2023-04-20T13:54:52.884Z,11.02
2023-04-20T13:57:19.732Z,11.05
2023-04-20T13:59:49.002Z,11.09
2023-04-20T14:02:19.126Z,11.12
2023-04-20T14:04:46.208Z,11.15
2023-04-20T14:07:13.265Z,11.17
2023-04-20T14:09:40.029Z,11.19
2023-04-20T14:12:08.111Z,11.22
2023-04-20T14:14:35.053Z,11.25
2023-04-20T14:17:01.774Z,11.27
2023-04-20T14:19:29.182Z,11.28
2023-04-20T14:21:56.277Z,11.27
2023-04-20T14:24:23.178Z,11.28
2023-04-20T14:27:00.199Z,11.28
2023-04-20T14:29:27.363Z,11.30
2023-04-20T14:31:55.387Z,11.32
2023-04-20T14:34:22.696Z,11.34
2023-04-20T14:36:50.176Z,11.38
2023-04-20T14:39:18.836Z,11.42
2023-04-20T14:41:50.391Z,11.46
2023-04-20T14:44:17.438Z,11.52
2023-04-20T14:46:44.465Z,11.59
2023-04-20T14:49:12.011Z,11.67
2023-04-20T14:51:42.443Z,11.73
2023-04-20T14:54:09.279Z,11.80
2023-04-20T14:56:36.505Z,11.84
2023-04-20T14:59:04.313Z,11.88
2023-04-20T15:01:31.434Z,11.91
2023-04-20T15:03:58.801Z,11.93
2023-04-20T15:06:27.700Z,11.95
2023-04-20T15:08:55.869Z,11.96
2023-04-20T15:11:22.767Z,11.96
2023-04-20T15:13:52.064Z,11.98
2023-04-20T15:16:18.928Z,12.00
2023-04-20T15:18:46.531Z,12.00
2023-04-20T15:21:13.513Z,11.99
2023-04-20T15:23:40.934Z,11.99
2023-04-20T15:26:08.526Z,11.99
2023-04-20T15:28:36.715Z,12.00
2023-04-20T15:31:06.998Z,12.01
2023-04-20T15:33:34.557Z,12.03
2023-04-20T15:36:01.510Z,12.02
2023-04-20T15:38:30.003Z,12.02
2023-04-20T15:41:04.581Z,12.03
2023-04-20T15:43:32.386Z,12.03
2023-04-20T15:46:01.496Z,12.04
2023-04-20T15:48:28.631Z,12.03
2023-04-20T15:50:56.822Z,12.03
2023-04-20T15:53:24.625Z,12.03
2023-04-20T15:55:52.813Z,12.02
2023-04-20T15:58:20.776Z,11.99
2023-04-20T16:00:49.024Z,11.98
2023-04-20T16:03:17.443Z,11.97
2023-04-20T16:05:46.427Z,11.95
2023-04-20T16:08:18.319Z,11.95
2023-04-20T16:10:47.483Z,11.94
2023-04-20T16:13:14.412Z,11.93
2023-04-20T16:15:41.300Z,11.93
2023-04-20T16:18:10.874Z,11.94
2023-04-20T16:20:40.688Z,11.95
2023-04-20T16:23:08.791Z,11.94
2023-04-20T16:25:41.590Z,11.94
2023-04-20T16:28:08.468Z,11.93
2023-04-20T16:30:38.567Z,11.93
2023-04-20T16:33:05.724Z,11.91
2023-04-20T16:35:34.600Z,11.90
2023-04-20T16:38:02.329Z,11.89
2023-04-20T16:40:29.441Z,11.87
2023-04-20T16:42:57.144Z,11.86
2023-04-20T16:45:23.939Z,11.84
2023-04-20T16:47:50.796Z,11.84
2023-04-20T16:50:19.845Z,11.84
2023-04-20T16:52:47.055Z,11.84
2023-04-20T16:55:13.782Z,11.83
2023-04-20T16:57:41.455Z,11.83
2023-04-20T17:00:09.872Z,11.83
2023-04-20T17:02:37.546Z,11.82
2023-04-20T17:05:05.172Z,11.83
2023-04-20T17:07:32.566Z,11.81
2023-04-20T17:09:59.345Z,11.80
2023-04-20T17:12:25.911Z,11.77
2023-04-20T17:14:53.864Z,11.76
2023-04-20T17:17:20.466Z,11.76
2023-04-20T17:19:47.077Z,11.76
2023-04-20T17:22:13.988Z,11.75
2023-04-20T17:24:40.840Z,11.75
2023-04-20T17:27:07.740Z,11.74
2023-04-20T17:29:37.653Z,11.74
2023-04-20T17:32:05.355Z,11.73
2023-04-20T17:34:32.396Z,11.73
2023-04-20T17:36:59.177Z,11.73
2023-04-20T17:39:26.051Z,11.72
2023-04-20T17:41:52.959Z,11.72
2023-04-20T17:44:19.925Z,11.71
2023-04-20T17:46:49.036Z,11.70
2023-04-20T17:49:15.794Z,11.69
2023-04-20T17:51:42.324Z,11.70
2023-04-20T17:54:10.606Z,11.70
2023-04-20T17:56:37.322Z,11.69
2023-04-20T17:59:04.789Z,11.67
2023-04-20T18:01:34.140Z,11.65
2023-04-20T18:04:01.934Z,11.63
2023-04-20T18:06:30.072Z,11.63
2023-04-20T18:08:57.667Z,11.64
2023-04-20T18:11:24.321Z,11.66
2023-04-20T18:13:51.371Z,11.68
2023-04-20T18:16:20.415Z,11.67
2023-04-20T18:18:48.114Z,11.66
2023-04-20T18:21:14.846Z,11.64
2023-04-20T18:23:41.715Z,11.63
2023-04-20T18:26:16.692Z,11.63
2023-04-20T18:28:44.229Z,11.64
2023-04-20T18:31:11.137Z,11.64
2023-04-20T18:33:37.865Z,11.64
2023-04-20T18:36:05.075Z,11.64
2023-04-20T18:38:32.493Z,11.63
2023-04-20T18:40:59.290Z,11.62
2023-04-20T18:43:26.192Z,11.60
2023-04-20T18:45:52.867Z,11.56
2023-04-20T18:48:19.823Z,11.54
2023-04-20T18:50:48.048Z,11.50
2023-04-20T18:53:15.393Z,11.47
2023-04-20T18:55:42.007Z,11.43
2023-04-20T18:58:08.654Z,11.35
2023-04-20T19:00:35.568Z,11.27
2023-04-20T19:03:02.526Z,11.19
2023-04-20T19:05:30.391Z,11.09
2023-04-20T19:07:57.171Z,11.01
2023-04-20T19:10:25.073Z,10.91
2023-04-20T19:12:51.823Z,10.83
2023-04-20T19:15:24.942Z,10.75
2023-04-20T19:17:53.695Z,10.67
2023-04-20T19:20:20.950Z,10.60
2023-04-20T19:22:48.236Z,10.55
2023-04-20T19:25:15.376Z,10.52
2023-04-20T19:27:42.415Z,10.48
2023-04-20T19:30:09.367Z,10.43
2023-04-20T19:32:36.473Z,10.39
2023-04-20T19:35:03.668Z,10.34
2023-04-20T19:37:31.430Z,10.29
2023-04-20T19:39:58.560Z,10.25
2023-04-20T19:42:25.740Z,10.22
2023-04-20T19:44:53.007Z,10.18
2023-04-20T19:47:20.491Z,10.12
2023-04-20T19:49:50.260Z,10.09
2023-04-20T19:52:17.369Z,10.04
2023-04-20T19:54:44.073Z,9.99
2023-04-20T19:57:12.276Z,9.95
2023-04-20T19:59:41.086Z,9.91
2023-04-20T20:02:08.033Z,9.88
2023-04-20T20:04:37.238Z,9.84
2023-04-20T20:07:04.495Z,9.80
2023-04-20T20:09:32.498Z,9.77
2023-04-20T20:12:00.495Z,9.72
2023-04-20T20:14:27.230Z,9.70
2023-04-20T20:16:55.919Z,9.69
2023-04-20T20:19:23.094Z,9.70
2023-04-20T20:21:50.240Z,9.70
2023-04-20T20:24:22.332Z,9.71
2023-04-20T20:26:49.111Z,9.71
2023-04-20T20:29:16.268Z,9.70
2023-04-20T20:31:48.769Z,9.70
2023-04-20T20:34:15.799Z,9.69
2023-04-20T20:36:44.421Z,9.65
2023-04-20T20:39:12.030Z,9.63
2023-04-20T20:41:42.185Z,9.60
2023-04-20T20:44:11.904Z,9.59
2023-04-20T20:46:41.601Z,9.59
2023-04-20T20:49:10.844Z,9.60
2023-04-20T20:51:37.622Z,9.62
2023-04-20T20:54:06.329Z,9.60
2023-04-20T20:56:33.082Z,9.56
2023-04-20T20:58:59.851Z,9.51
2023-04-20T21:01:26.811Z,9.45
2023-04-20T21:03:53.761Z,9.41
2023-04-20T21:06:21.651Z,9.38
2023-04-20T21:08:48.198Z,9.33
2023-04-20T21:11:14.951Z,9.28
2023-04-20T21:13:41.757Z,9.27
2023-04-20T21:16:08.432Z,9.24
2023-04-20T21:18:35.576Z,9.20
2023-04-20T21:21:02.368Z,9.17
2023-04-20T21:23:29.011Z,9.17
2023-04-20T21:25:55.694Z,9.16
2023-04-20T21:28:22.482Z,9.15
2023-04-20T21:30:48.974Z,9.16
2023-04-20T21:33:15.583Z,9.17
2023-04-20T21:35:46.826Z,9.18
2023-04-20T21:38:19.523Z,9.18
2023-04-20T21:40:46.093Z,9.17
2023-04-20T21:43:13.718Z,9.15
2023-04-20T21:45:40.290Z,9.14
2023-04-20T21:48:10.163Z,9.12
2023-04-20T21:50:37.012Z,9.09
2023-04-20T21:53:03.621Z,9.09
2023-04-20T21:55:30.230Z,9.09
2023-04-20T21:57:57.071Z,9.09
2023-04-20T22:00:24.451Z,9.08
2023-04-20T22:02:51.593Z,9.08
2023-04-20T22:05:18.486Z,9.07
2023-04-20T22:07:45.518Z,9.07
2023-04-20T22:10:12.116Z,9.07
2023-04-20T22:12:41.803Z,9.06
2023-04-20T22:15:11.390Z,9.06
2023-04-20T22:17:38.454Z,9.05
2023-04-20T22:20:08.746Z,9.02
2023-04-20T22:22:35.971Z,9.00
2023-04-20T22:25:04.005Z,8.98
2023-04-20T22:27:32.031Z,8.95
2023-04-20T22:29:58.739Z,8.93
2023-04-20T22:32:27.881Z,8.91
2023-04-20T22:34:57.498Z,8.90
2023-04-20T22:37:24.272Z,8.88
2023-04-20T22:39:50.947Z,8.85
2023-04-20T22:42:17.489Z,8.82
2023-04-20T22:44:45.075Z,8.80
2023-04-20T22:47:11.910Z,8.79
2023-04-20T22:49:38.531Z,8.78
2023-04-20T22:52:05.268Z,8.78
2023-04-20T22:54:32.174Z,8.76
2023-04-20T22:56:58.849Z,8.75
2023-04-20T22:59:25.571Z,8.74
2023-04-20T23:01:52.112Z,8.75
2023-04-20T23:04:19.150Z,8.76
2023-04-20T23:06:48.622Z,8.76
2023-04-20T23:09:19.771Z,8.77
2023-04-20T23:11:46.583Z,8.78
2023-04-20T23:14:14.173Z,8.78
2023-04-20T23:16:41.018Z,8.80
2023-04-20T23:19:07.733Z,8.81
2023-04-20T23:21:34.281Z,8.81
2023-04-20T23:24:00.924Z,8.82
2023-04-20T23:26:27.964Z,8.84
2023-04-20T23:28:54.595Z,8.85
2023-04-20T23:31:21.261Z,8.83
2023-04-20T23:33:48.252Z,8.83
2023-04-20T23:36:15.162Z,8.83
2023-04-20T23:38:42.002Z,8.82
2023-04-20T23:41:09.546Z,8.80
2023-04-20T23:43:37.888Z,8.78
2023-04-20T23:46:05.741Z,8.77
2023-04-20T23:48:32.942Z,8.77
2023-04-20T23:51:02.830Z,8.77
2023-04-20T23:53:29.690Z,8.77
2023-04-20T23:55:56.390Z,8.77
2023-04-20T23:58:26.748Z,8.77
